sensor_id;sensor_type;location;lat;lon;timestamp;P1;durP1;ratioP1;P2;durP2;ratioP2
4434;SDS011;46552;52.150;8.428;2023-03-11T00:01:04;11.20;;;3.33;;
4434;SDS011;46552;52.150;8.428;2023-03-11T00:03:34;6.63;;;3.00;;
4434;SDS011;46552;52.150;8.428;2023-03-11T00:06:01;7.10;;;3.60;;
4434;SDS011;46552;52.150;8.428;2023-03-11T00:08:29;14.90;;;3.30;;
4434;SDS011;46552;52.150;8.428;2023-03-11T00:10:57;5.37;;;3.37;;
4434;SDS011;46552;52.150;8.428;2023-03-11T00:13:26;10.20;;;3.30;;
4434;SDS011;46552;52.150;8.428;2023-03-11T00:15:56;5.90;;;3.23;;
4434;SDS011;46552;52.150;8.428;2023-03-11T00:18:24;5.67;;;3.10;;
4434;SDS011;46552;52.150;8.428;2023-03-11T00:20:57;5.47;;;3.13;;
4434;SDS011;46552;52.150;8.428;2023-03-11T00:23:25;11.37;;;3.40;;
4434;SDS011;46552;52.150;8.428;2023-03-11T00:25:54;4.83;;;3.00;;
4434;SDS011;46552;52.150;8.428;2023-03-11T00:28:23;6.90;;;3.27;;
4434;SDS011;46552;52.150;8.428;2023-03-11T00:30:51;10.10;;;3.50;;
4434;SDS011;46552;52.150;8.428;2023-03-11T00:33:19;6.77;;;2.90;;
4434;SDS011;46552;52.150;8.428;2023-03-11T00:35:48;9.20;;;3.37;;
4434;SDS011;46552;52.150;8.428;2023-03-11T00:38:17;8.77;;;4.27;;
4434;SDS011;46552;52.150;8.428;2023-03-11T00:40:45;6.50;;;3.17;;
4434;SDS011;46552;52.150;8.428;2023-03-11T00:43:14;8.50;;;3.60;;
4434;SDS011;46552;52.150;8.428;2023-03-11T00:45:42;5.70;;;3.53;;
4434;SDS011;46552;52.150;8.428;2023-03-11T00:48:10;5.90;;;2.97;;
4434;SDS011;46552;52.150;8.428;2023-03-11T00:50:39;6.87;;;3.73;;
4434;SDS011;46552;52.150;8.428;2023-03-11T00:53:07;20.57;;;2.97;;
4434;SDS011;46552;52.150;8.428;2023-03-11T00:55:38;10.63;;;2.80;;
4434;SDS011;46552;52.150;8.428;2023-03-11T00:58:05;7.40;;;3.00;;
4434;SDS011;46552;52.150;8.428;2023-03-11T01:00:34;5.20;;;3.30;;
4434;SDS011;46552;52.150;8.428;2023-03-11T01:03:01;15.33;;;3.33;;
4434;SDS011;46552;52.150;8.428;2023-03-11T01:05:29;16.13;;;3.63;;
4434;SDS011;46552;52.150;8.428;2023-03-11T01:07:57;7.00;;;3.63;;
4434;SDS011;46552;52.150;8.428;2023-03-11T01:10:26;11.20;;;4.23;;
4434;SDS011;46552;52.150;8.428;2023-03-11T01:12:57;8.60;;;3.60;;
4434;SDS011;46552;52.150;8.428;2023-03-11T01:15:26;6.63;;;3.30;;
4434;SDS011;46552;52.150;8.428;2023-03-11T01:17:55;7.80;;;4.27;;
4434;SDS011;46552;52.150;8.428;2023-03-11T01:20:22;13.13;;;5.07;;
4434;SDS011;46552;52.150;8.428;2023-03-11T01:22:50;10.83;;;4.77;;
4434;SDS011;46552;52.150;8.428;2023-03-11T01:25:18;8.27;;;3.97;;
4434;SDS011;46552;52.150;8.428;2023-03-11T01:27:46;11.50;;;5.17;;
4434;SDS011;46552;52.150;8.428;2023-03-11T01:30:16;10.73;;;4.50;;
4434;SDS011;46552;52.150;8.428;2023-03-11T01:32:45;12.33;;;5.10;;
4434;SDS011;46552;52.150;8.428;2023-03-11T01:35:13;11.10;;;5.23;;
4434;SDS011;46552;52.150;8.428;2023-03-11T01:37:43;16.80;;;4.67;;
4434;SDS011;46552;52.150;8.428;2023-03-11T01:40:12;8.97;;;5.07;;
4434;SDS011;46552;52.150;8.428;2023-03-11T01:42:42;11.23;;;4.50;;
4434;SDS011;46552;52.150;8.428;2023-03-11T01:45:23;9.70;;;5.53;;
4434;SDS011;46552;52.150;8.428;2023-03-11T01:48:08;10.77;;;5.30;;
4434;SDS011;46552;52.150;8.428;2023-03-11T01:50:39;13.60;;;5.17;;
4434;SDS011;46552;52.150;8.428;2023-03-11T01:53:10;19.57;;;6.07;;
4434;SDS011;46552;52.150;8.428;2023-03-11T01:55:38;10.00;;;5.43;;
4434;SDS011;46552;52.150;8.428;2023-03-11T01:58:07;19.30;;;5.53;;
4434;SDS011;46552;52.150;8.428;2023-03-11T02:00:38;15.70;;;5.27;;
4434;SDS011;46552;52.150;8.428;2023-03-11T02:03:07;9.53;;;5.30;;
4434;SDS011;46552;52.150;8.428;2023-03-11T02:05:38;10.70;;;5.97;;
4434;SDS011;46552;52.150;8.428;2023-03-11T02:08:05;11.70;;;6.17;;
4434;SDS011;46552;52.150;8.428;2023-03-11T02:10:33;11.10;;;5.20;;
4434;SDS011;46552;52.150;8.428;2023-03-11T02:13:01;12.63;;;5.53;;
4434;SDS011;46552;52.150;8.428;2023-03-11T02:15:29;13.13;;;5.53;;
4434;SDS011;46552;52.150;8.428;2023-03-11T02:17:58;10.40;;;5.40;;
4434;SDS011;46552;52.150;8.428;2023-03-11T02:20:29;8.63;;;4.60;;
4434;SDS011;46552;52.150;8.428;2023-03-11T02:23:04;11.93;;;5.23;;
4434;SDS011;46552;52.150;8.428;2023-03-11T02:25:33;12.60;;;6.17;;
4434;SDS011;46552;52.150;8.428;2023-03-11T02:28:06;12.90;;;4.27;;
4434;SDS011;46552;52.150;8.428;2023-03-11T02:30:37;11.00;;;5.17;;
4434;SDS011;46552;52.150;8.428;2023-03-11T02:33:06;11.30;;;4.83;;
4434;SDS011;46552;52.150;8.428;2023-03-11T02:35:33;8.03;;;4.50;;
4434;SDS011;46552;52.150;8.428;2023-03-11T02:38:01;8.10;;;4.70;;
4434;SDS011;46552;52.150;8.428;2023-03-11T02:40:43;9.43;;;5.10;;
4434;SDS011;46552;52.150;8.428;2023-03-11T02:43:18;13.97;;;4.40;;
4434;SDS011;46552;52.150;8.428;2023-03-11T02:45:48;12.47;;;5.50;;
4434;SDS011;46552;52.150;8.428;2023-03-11T02:48:16;8.20;;;4.33;;
4434;SDS011;46552;52.150;8.428;2023-03-11T02:50:44;10.40;;;4.47;;
4434;SDS011;46552;52.150;8.428;2023-03-11T02:53:12;10.53;;;4.33;;
4434;SDS011;46552;52.150;8.428;2023-03-11T02:55:40;10.53;;;4.50;;
4434;SDS011;46552;52.150;8.428;2023-03-11T02:58:07;11.13;;;3.70;;
4434;SDS011;46552;52.150;8.428;2023-03-11T03:00:37;11.33;;;4.20;;
4434;SDS011;46552;52.150;8.428;2023-03-11T03:03:04;11.43;;;4.20;;
4434;SDS011;46552;52.150;8.428;2023-03-11T03:05:32;6.10;;;4.10;;
4434;SDS011;46552;52.150;8.428;2023-03-11T03:08:00;10.93;;;4.00;;
4434;SDS011;46552;52.150;8.428;2023-03-11T03:10:28;12.60;;;4.80;;
4434;SDS011;46552;52.150;8.428;2023-03-11T03:12:55;9.23;;;4.80;;
4434;SDS011;46552;52.150;8.428;2023-03-11T03:15:23;10.37;;;5.43;;
4434;SDS011;46552;52.150;8.428;2023-03-11T03:17:51;8.13;;;4.20;;
4434;SDS011;46552;52.150;8.428;2023-03-11T03:20:19;15.30;;;4.90;;
4434;SDS011;46552;52.150;8.428;2023-03-11T03:22:47;10.27;;;5.10;;
4434;SDS011;46552;52.150;8.428;2023-03-11T03:25:15;13.43;;;4.70;;
4434;SDS011;46552;52.150;8.428;2023-03-11T03:27:43;7.67;;;4.20;;
4434;SDS011;46552;52.150;8.428;2023-03-11T03:30:10;6.77;;;4.50;;
4434;SDS011;46552;52.150;8.428;2023-03-11T03:32:38;9.53;;;4.77;;
4434;SDS011;46552;52.150;8.428;2023-03-11T03:35:08;7.53;;;3.63;;
4434;SDS011;46552;52.150;8.428;2023-03-11T03:37:36;9.90;;;4.77;;
4434;SDS011;46552;52.150;8.428;2023-03-11T03:40:06;7.60;;;3.70;;
4434;SDS011;46552;52.150;8.428;2023-03-11T03:42:34;7.57;;;4.00;;
4434;SDS011;46552;52.150;8.428;2023-03-11T03:45:02;7.67;;;4.00;;
4434;SDS011;46552;52.150;8.428;2023-03-11T03:47:30;9.33;;;3.43;;
4434;SDS011;46552;52.150;8.428;2023-03-11T03:49:58;17.33;;;4.07;;
4434;SDS011;46552;52.150;8.428;2023-03-11T03:52:27;13.87;;;4.60;;
4434;SDS011;46552;52.150;8.428;2023-03-11T03:54:55;7.10;;;3.67;;
4434;SDS011;46552;52.150;8.428;2023-03-11T03:57:22;7.20;;;4.00;;
4434;SDS011;46552;52.150;8.428;2023-03-11T03:59:50;9.87;;;4.07;;
4434;SDS011;46552;52.150;8.428;2023-03-11T04:02:17;9.90;;;3.60;;
4434;SDS011;46552;52.150;8.428;2023-03-11T04:04:45;8.93;;;4.07;;
4434;SDS011;46552;52.150;8.428;2023-03-11T04:07:13;7.47;;;3.60;;
4434;SDS011;46552;52.150;8.428;2023-03-11T04:09:42;12.17;;;4.50;;
4434;SDS011;46552;52.150;8.428;2023-03-11T04:12:10;6.30;;;3.17;;
4434;SDS011;46552;52.150;8.428;2023-03-11T04:14:39;6.47;;;3.67;;
4434;SDS011;46552;52.150;8.428;2023-03-11T04:17:07;9.60;;;3.50;;
4434;SDS011;46552;52.150;8.428;2023-03-11T04:19:36;14.30;;;3.57;;
4434;SDS011;46552;52.150;8.428;2023-03-11T04:22:03;14.03;;;4.17;;
4434;SDS011;46552;52.150;8.428;2023-03-11T04:24:31;8.10;;;3.73;;
4434;SDS011;46552;52.150;8.428;2023-03-11T04:27:00;8.00;;;2.77;;
4434;SDS011;46552;52.150;8.428;2023-03-11T04:29:28;10.60;;;3.60;;
4434;SDS011;46552;52.150;8.428;2023-03-11T04:31:55;7.53;;;3.30;;
4434;SDS011;46552;52.150;8.428;2023-03-11T04:34:24;6.97;;;2.93;;
4434;SDS011;46552;52.150;8.428;2023-03-11T04:36:51;12.50;;;2.80;;
4434;SDS011;46552;52.150;8.428;2023-03-11T04:39:18;6.40;;;2.73;;
4434;SDS011;46552;52.150;8.428;2023-03-11T04:41:45;6.57;;;2.90;;
4434;SDS011;46552;52.150;8.428;2023-03-11T04:44:14;6.73;;;2.67;;
4434;SDS011;46552;52.150;8.428;2023-03-11T04:46:42;5.43;;;2.10;;
4434;SDS011;46552;52.150;8.428;2023-03-11T04:49:09;12.23;;;3.20;;
4434;SDS011;46552;52.150;8.428;2023-03-11T04:51:37;8.07;;;3.63;;
4434;SDS011;46552;52.150;8.428;2023-03-11T04:54:04;10.00;;;2.07;;
4434;SDS011;46552;52.150;8.428;2023-03-11T04:56:31;8.57;;;2.87;;
4434;SDS011;46552;52.150;8.428;2023-03-11T04:58:59;7.70;;;2.60;;
4434;SDS011;46552;52.150;8.428;2023-03-11T05:01:29;13.53;;;2.50;;
4434;SDS011;46552;52.150;8.428;2023-03-11T05:03:56;11.93;;;2.40;;
4434;SDS011;46552;52.150;8.428;2023-03-11T05:06:24;5.30;;;2.43;;
4434;SDS011;46552;52.150;8.428;2023-03-11T05:08:51;6.87;;;2.03;;
4434;SDS011;46552;52.150;8.428;2023-03-11T05:11:18;8.83;;;2.73;;
4434;SDS011;46552;52.150;8.428;2023-03-11T05:13:45;6.23;;;2.90;;
4434;SDS011;46552;52.150;8.428;2023-03-11T05:16:14;6.10;;;2.10;;
4434;SDS011;46552;52.150;8.428;2023-03-11T05:18:44;9.00;;;2.60;;
4434;SDS011;46552;52.150;8.428;2023-03-11T05:21:11;10.87;;;2.53;;
4434;SDS011;46552;52.150;8.428;2023-03-11T05:23:39;7.47;;;2.03;;
4434;SDS011;46552;52.150;8.428;2023-03-11T05:26:06;7.30;;;2.53;;
4434;SDS011;46552;52.150;8.428;2023-03-11T05:28:34;5.00;;;1.97;;
4434;SDS011;46552;52.150;8.428;2023-03-11T05:31:01;5.10;;;1.80;;
4434;SDS011;46552;52.150;8.428;2023-03-11T05:33:28;9.37;;;2.17;;
4434;SDS011;46552;52.150;8.428;2023-03-11T05:36:04;6.60;;;1.83;;
4434;SDS011;46552;52.150;8.428;2023-03-11T05:38:32;4.30;;;1.70;;
4434;SDS011;46552;52.150;8.428;2023-03-11T05:40:59;15.83;;;2.47;;
4434;SDS011;46552;52.150;8.428;2023-03-11T05:43:27;8.90;;;2.27;;
4434;SDS011;46552;52.150;8.428;2023-03-11T05:45:54;10.70;;;2.00;;
4434;SDS011;46552;52.150;8.428;2023-03-11T05:48:21;19.47;;;2.60;;
4434;SDS011;46552;52.150;8.428;2023-03-11T05:50:48;6.33;;;1.90;;
4434;SDS011;46552;52.150;8.428;2023-03-11T05:53:18;4.90;;;1.70;;
4434;SDS011;46552;52.150;8.428;2023-03-11T05:55:54;7.30;;;2.30;;
4434;SDS011;46552;52.150;8.428;2023-03-11T05:58:21;4.70;;;2.13;;
4434;SDS011;46552;52.150;8.428;2023-03-11T06:00:48;6.50;;;2.60;;
4434;SDS011;46552;52.150;8.428;2023-03-11T06:03:16;13.97;;;2.17;;
4434;SDS011;46552;52.150;8.428;2023-03-11T06:05:43;16.97;;;2.63;;
4434;SDS011;46552;52.150;8.428;2023-03-11T06:08:11;5.83;;;2.87;;
4434;SDS011;46552;52.150;8.428;2023-03-11T06:10:40;9.27;;;2.13;;
4434;SDS011;46552;52.150;8.428;2023-03-11T06:13:07;12.60;;;3.43;;
4434;SDS011;46552;52.150;8.428;2023-03-11T06:15:35;3.80;;;2.10;;
4434;SDS011;46552;52.150;8.428;2023-03-11T06:18:03;6.60;;;2.03;;
4434;SDS011;46552;52.150;8.428;2023-03-11T06:20:30;10.37;;;2.87;;
4434;SDS011;46552;52.150;8.428;2023-03-11T06:22:57;5.70;;;2.17;;
4434;SDS011;46552;52.150;8.428;2023-03-11T06:25:25;6.53;;;2.23;;
4434;SDS011;46552;52.150;8.428;2023-03-11T06:27:53;15.73;;;1.93;;
4434;SDS011;46552;52.150;8.428;2023-03-11T06:30:22;7.10;;;2.30;;
4434;SDS011;46552;52.150;8.428;2023-03-11T06:32:50;54.90;;;4.10;;
4434;SDS011;46552;52.150;8.428;2023-03-11T06:35:19;9.17;;;2.30;;
4434;SDS011;46552;52.150;8.428;2023-03-11T06:37:46;11.07;;;2.10;;
4434;SDS011;46552;52.150;8.428;2023-03-11T06:40:13;3.40;;;1.83;;
4434;SDS011;46552;52.150;8.428;2023-03-11T06:42:40;4.97;;;2.13;;
4434;SDS011;46552;52.150;8.428;2023-03-11T06:45:10;3.97;;;1.70;;
4434;SDS011;46552;52.150;8.428;2023-03-11T06:47:37;5.73;;;1.50;;
4434;SDS011;46552;52.150;8.428;2023-03-11T06:50:06;5.30;;;1.70;;
4434;SDS011;46552;52.150;8.428;2023-03-11T06:52:33;4.50;;;2.30;;
4434;SDS011;46552;52.150;8.428;2023-03-11T06:55:01;6.97;;;2.00;;
4434;SDS011;46552;52.150;8.428;2023-03-11T06:57:28;13.70;;;2.13;;
4434;SDS011;46552;52.150;8.428;2023-03-11T06:59:56;10.77;;;2.30;;
4434;SDS011;46552;52.150;8.428;2023-03-11T07:02:25;5.07;;;2.07;;
4434;SDS011;46552;52.150;8.428;2023-03-11T07:04:52;6.10;;;2.53;;
4434;SDS011;46552;52.150;8.428;2023-03-11T07:07:19;4.70;;;2.00;;
4434;SDS011;46552;52.150;8.428;2023-03-11T07:09:46;8.33;;;2.57;;
4434;SDS011;46552;52.150;8.428;2023-03-11T07:12:14;18.23;;;2.20;;
4434;SDS011;46552;52.150;8.428;2023-03-11T07:14:41;7.30;;;2.07;;
4434;SDS011;46552;52.150;8.428;2023-03-11T07:17:09;11.90;;;2.43;;
4434;SDS011;46552;52.150;8.428;2023-03-11T07:19:37;6.70;;;2.43;;
4434;SDS011;46552;52.150;8.428;2023-03-11T07:22:05;4.77;;;1.70;;
4434;SDS011;46552;52.150;8.428;2023-03-11T07:24:32;6.23;;;2.20;;
4434;SDS011;46552;52.150;8.428;2023-03-11T07:26:59;8.20;;;2.10;;
4434;SDS011;46552;52.150;8.428;2023-03-11T07:29:27;6.40;;;1.80;;
4434;SDS011;46552;52.150;8.428;2023-03-11T07:31:55;3.70;;;1.60;;
4434;SDS011;46552;52.150;8.428;2023-03-11T07:34:22;4.87;;;1.80;;
4434;SDS011;46552;52.150;8.428;2023-03-11T07:36:51;5.43;;;2.63;;
4434;SDS011;46552;52.150;8.428;2023-03-11T07:39:18;9.33;;;2.40;;
4434;SDS011;46552;52.150;8.428;2023-03-11T07:41:45;5.30;;;2.03;;
4434;SDS011;46552;52.150;8.428;2023-03-11T07:44:13;8.63;;;2.10;;
4434;SDS011;46552;52.150;8.428;2023-03-11T07:46:41;12.10;;;2.53;;
4434;SDS011;46552;52.150;8.428;2023-03-11T07:49:09;6.73;;;2.13;;
4434;SDS011;46552;52.150;8.428;2023-03-11T07:51:37;5.20;;;2.40;;
4434;SDS011;46552;52.150;8.428;2023-03-11T07:54:08;6.10;;;2.33;;
4434;SDS011;46552;52.150;8.428;2023-03-11T07:56:35;5.07;;;2.70;;
4434;SDS011;46552;52.150;8.428;2023-03-11T07:59:03;8.37;;;3.30;;
4434;SDS011;46552;52.150;8.428;2023-03-11T08:01:32;8.47;;;2.87;;
4434;SDS011;46552;52.150;8.428;2023-03-11T08:04:03;9.03;;;3.23;;
4434;SDS011;46552;52.150;8.428;2023-03-11T08:06:32;6.03;;;3.17;;
4434;SDS011;46552;52.150;8.428;2023-03-11T08:09:02;7.90;;;3.10;;
4434;SDS011;46552;52.150;8.428;2023-03-11T08:11:34;9.50;;;3.90;;
4434;SDS011;46552;52.150;8.428;2023-03-11T08:14:02;25.83;;;4.07;;
4434;SDS011;46552;52.150;8.428;2023-03-11T08:16:29;5.70;;;3.07;;
4434;SDS011;46552;52.150;8.428;2023-03-11T08:18:56;8.50;;;2.60;;
4434;SDS011;46552;52.150;8.428;2023-03-11T08:21:25;12.60;;;3.23;;
4434;SDS011;46552;52.150;8.428;2023-03-11T08:23:55;7.70;;;3.33;;
4434;SDS011;46552;52.150;8.428;2023-03-11T08:26:24;23.57;;;3.77;;
4434;SDS011;46552;52.150;8.428;2023-03-11T08:28:54;10.73;;;3.80;;
4434;SDS011;46552;52.150;8.428;2023-03-11T08:31:22;8.20;;;2.77;;
4434;SDS011;46552;52.150;8.428;2023-03-11T08:33:52;11.50;;;2.83;;
4434;SDS011;46552;52.150;8.428;2023-03-11T08:36:20;15.37;;;2.87;;
4434;SDS011;46552;52.150;8.428;2023-03-11T08:38:47;4.60;;;2.33;;
4434;SDS011;46552;52.150;8.428;2023-03-11T08:41:15;11.40;;;2.53;;
4434;SDS011;46552;52.150;8.428;2023-03-11T08:43:42;7.80;;;2.27;;
4434;SDS011;46552;52.150;8.428;2023-03-11T08:46:12;6.87;;;2.63;;
4434;SDS011;46552;52.150;8.428;2023-03-11T08:48:43;5.80;;;2.60;;
4434;SDS011;46552;52.150;8.428;2023-03-11T08:51:10;8.87;;;3.10;;
4434;SDS011;46552;52.150;8.428;2023-03-11T08:53:38;7.33;;;2.60;;
4434;SDS011;46552;52.150;8.428;2023-03-11T08:56:05;16.63;;;2.77;;
4434;SDS011;46552;52.150;8.428;2023-03-11T08:58:33;6.00;;;2.10;;
4434;SDS011;46552;52.150;8.428;2023-03-11T09:01:00;6.50;;;2.00;;
4434;SDS011;46552;52.150;8.428;2023-03-11T09:03:30;7.23;;;3.13;;
4434;SDS011;46552;52.150;8.428;2023-03-11T09:06:00;10.90;;;2.10;;
4434;SDS011;46552;52.150;8.428;2023-03-11T09:08:28;4.53;;;2.30;;
4434;SDS011;46552;52.150;8.428;2023-03-11T09:10:55;4.70;;;2.30;;
4434;SDS011;46552;52.150;8.428;2023-03-11T09:13:23;10.13;;;3.00;;
4434;SDS011;46552;52.150;8.428;2023-03-11T09:15:50;12.87;;;2.20;;
4434;SDS011;46552;52.150;8.428;2023-03-11T09:18:18;7.03;;;2.30;;
4434;SDS011;46552;52.150;8.428;2023-03-11T09:20:48;11.90;;;2.27;;
4434;SDS011;46552;52.150;8.428;2023-03-11T09:23:16;7.30;;;2.37;;
4434;SDS011;46552;52.150;8.428;2023-03-11T09:25:44;6.03;;;2.20;;
4434;SDS011;46552;52.150;8.428;2023-03-11T09:28:13;12.53;;;2.30;;
4434;SDS011;46552;52.150;8.428;2023-03-11T09:30:40;4.87;;;1.87;;
4434;SDS011;46552;52.150;8.428;2023-03-11T09:33:07;5.23;;;2.17;;
4434;SDS011;46552;52.150;8.428;2023-03-11T09:35:36;6.30;;;2.17;;
4434;SDS011;46552;52.150;8.428;2023-03-11T09:38:06;8.73;;;2.80;;
4434;SDS011;46552;52.150;8.428;2023-03-11T09:40:38;8.23;;;2.50;;
4434;SDS011;46552;52.150;8.428;2023-03-11T09:43:33;4.60;;;2.30;;
4434;SDS011;46552;52.150;8.428;2023-03-11T09:46:16;7.50;;;2.40;;
4434;SDS011;46552;52.150;8.428;2023-03-11T09:49:05;7.90;;;2.60;;
4434;SDS011;46552;52.150;8.428;2023-03-11T09:51:41;7.73;;;2.70;;
4434;SDS011;46552;52.150;8.428;2023-03-11T09:54:13;6.90;;;2.10;;
4434;SDS011;46552;52.150;8.428;2023-03-11T09:56:40;6.97;;;2.17;;
4434;SDS011;46552;52.150;8.428;2023-03-11T09:59:12;6.97;;;2.50;;
4434;SDS011;46552;52.150;8.428;2023-03-11T10:01:43;8.33;;;3.20;;
4434;SDS011;46552;52.150;8.428;2023-03-11T10:04:13;6.30;;;2.50;;
4434;SDS011;46552;52.150;8.428;2023-03-11T10:06:45;6.83;;;2.57;;
4434;SDS011;46552;52.150;8.428;2023-03-11T10:09:23;12.27;;;2.60;;
4434;SDS011;46552;52.150;8.428;2023-03-11T10:11:59;11.10;;;3.00;;
4434;SDS011;46552;52.150;8.428;2023-03-11T10:14:41;9.70;;;2.37;;
4434;SDS011;46552;52.150;8.428;2023-03-11T10:17:19;9.30;;;2.40;;
4434;SDS011;46552;52.150;8.428;2023-03-11T10:20:10;7.80;;;2.13;;
4434;SDS011;46552;52.150;8.428;2023-03-11T10:22:44;7.03;;;1.77;;
4434;SDS011;46552;52.150;8.428;2023-03-11T10:25:18;4.50;;;1.80;;
4434;SDS011;46552;52.150;8.428;2023-03-11T10:27:48;8.60;;;2.10;;
4434;SDS011;46552;52.150;8.428;2023-03-11T10:30:22;6.70;;;1.90;;
4434;SDS011;46552;52.150;8.428;2023-03-11T10:32:53;19.47;;;2.20;;
4434;SDS011;46552;52.150;8.428;2023-03-11T10:35:27;9.07;;;2.20;;
4434;SDS011;46552;52.150;8.428;2023-03-11T10:38:02;8.47;;;2.60;;
4434;SDS011;46552;52.150;8.428;2023-03-11T10:40:39;10.60;;;2.40;;
4434;SDS011;46552;52.150;8.428;2023-03-11T10:43:09;6.90;;;1.83;;
4434;SDS011;46552;52.150;8.428;2023-03-11T10:45:40;7.33;;;2.10;;
4434;SDS011;46552;52.150;8.428;2023-03-11T10:48:10;6.87;;;2.63;;
4434;SDS011;46552;52.150;8.428;2023-03-11T10:50:41;10.50;;;2.17;;
4434;SDS011;46552;52.150;8.428;2023-03-11T10:53:13;10.77;;;2.10;;
4434;SDS011;46552;52.150;8.428;2023-03-11T10:55:49;5.30;;;2.33;;
4434;SDS011;46552;52.150;8.428;2023-03-11T10:58:18;14.20;;;2.77;;
4434;SDS011;46552;52.150;8.428;2023-03-11T11:00:53;7.97;;;2.43;;
4434;SDS011;46552;52.150;8.428;2023-03-11T11:03:26;7.30;;;2.23;;
4434;SDS011;46552;52.150;8.428;2023-03-11T11:05:57;5.80;;;1.50;;
4434;SDS011;46552;52.150;8.428;2023-03-11T11:08:27;8.13;;;1.67;;
4434;SDS011;46552;52.150;8.428;2023-03-11T11:10:57;7.90;;;2.20;;
4434;SDS011;46552;52.150;8.428;2023-03-11T11:13:27;4.70;;;1.77;;
4434;SDS011;46552;52.150;8.428;2023-03-11T11:15:57;4.60;;;2.17;;
4434;SDS011;46552;52.150;8.428;2023-03-11T11:18:28;4.20;;;1.63;;
4434;SDS011;46552;52.150;8.428;2023-03-11T11:20:59;13.67;;;2.60;;
4434;SDS011;46552;52.150;8.428;2023-03-11T11:23:32;9.43;;;2.40;;
4434;SDS011;46552;52.150;8.428;2023-03-11T11:26:03;8.20;;;2.63;;
4434;SDS011;46552;52.150;8.428;2023-03-11T11:28:33;7.73;;;2.33;;
4434;SDS011;46552;52.150;8.428;2023-03-11T11:31:02;8.30;;;3.80;;
4434;SDS011;46552;52.150;8.428;2023-03-11T11:33:31;9.73;;;2.30;;
4434;SDS011;46552;52.150;8.428;2023-03-11T11:36:04;9.97;;;1.60;;
4434;SDS011;46552;52.150;8.428;2023-03-11T11:38:37;9.50;;;2.27;;
4434;SDS011;46552;52.150;8.428;2023-03-11T11:41:08;13.87;;;2.13;;
4434;SDS011;46552;52.150;8.428;2023-03-11T11:43:43;5.77;;;1.73;;
4434;SDS011;46552;52.150;8.428;2023-03-11T11:46:17;7.83;;;2.07;;
4434;SDS011;46552;52.150;8.428;2023-03-11T11:48:49;8.33;;;1.97;;
4434;SDS011;46552;52.150;8.428;2023-03-11T11:51:24;4.77;;;1.63;;
4434;SDS011;46552;52.150;8.428;2023-03-11T11:53:56;6.07;;;1.87;;
4434;SDS011;46552;52.150;8.428;2023-03-11T11:56:30;6.67;;;1.73;;
4434;SDS011;46552;52.150;8.428;2023-03-11T11:58:57;6.40;;;1.93;;
4434;SDS011;46552;52.150;8.428;2023-03-11T12:01:34;8.33;;;2.30;;
4434;SDS011;46552;52.150;8.428;2023-03-11T12:04:19;4.03;;;1.57;;
4434;SDS011;46552;52.150;8.428;2023-03-11T12:07:17;6.10;;;1.60;;
4434;SDS011;46552;52.150;8.428;2023-03-11T12:10:08;8.37;;;1.40;;
4434;SDS011;46552;52.150;8.428;2023-03-11T12:12:45;8.63;;;2.10;;
4434;SDS011;46552;52.150;8.428;2023-03-11T12:15:20;8.30;;;1.57;;
4434;SDS011;46552;52.150;8.428;2023-03-11T12:17:53;4.07;;;1.73;;
4434;SDS011;46552;52.150;8.428;2023-03-11T12:20:29;5.53;;;2.10;;
4434;SDS011;46552;52.150;8.428;2023-03-11T12:23:06;12.40;;;2.67;;
4434;SDS011;46552;52.150;8.428;2023-03-11T12:25:50;3.50;;;1.60;;
4434;SDS011;46552;52.150;8.428;2023-03-11T12:28:28;7.93;;;1.53;;
4434;SDS011;46552;52.150;8.428;2023-03-11T12:31:03;6.23;;;1.50;;
4434;SDS011;46552;52.150;8.428;2023-03-11T12:33:35;8.40;;;1.70;;
4434;SDS011;46552;52.150;8.428;2023-03-11T12:36:04;6.13;;;2.00;;
4434;SDS011;46552;52.150;8.428;2023-03-11T12:38:34;12.23;;;2.23;;
4434;SDS011;46552;52.150;8.428;2023-03-11T12:41:05;8.40;;;2.13;;
4434;SDS011;46552;52.150;8.428;2023-03-11T12:52:56;6.40;;;2.50;;
4434;SDS011;46552;52.150;8.428;2023-03-11T12:58:10;9.00;;;1.50;;
4434;SDS011;46552;52.150;8.428;2023-03-11T13:01:10;5.23;;;1.60;;
4434;SDS011;46552;52.150;8.428;2023-03-11T13:03:59;5.73;;;1.87;;
4434;SDS011;46552;52.150;8.428;2023-03-11T13:09:40;6.70;;;2.70;;
4434;SDS011;46552;52.150;8.428;2023-03-11T13:18:02;13.43;;;1.83;;
4434;SDS011;46552;52.150;8.428;2023-03-11T13:20:45;5.67;;;2.27;;
4434;SDS011;46552;52.150;8.428;2023-03-11T13:23:30;8.23;;;2.80;;
4434;SDS011;46552;52.150;8.428;2023-03-11T13:29:09;7.70;;;1.70;;
4434;SDS011;46552;52.150;8.428;2023-03-11T13:32:02;5.40;;;1.90;;
4434;SDS011;46552;52.150;8.428;2023-03-11T13:35:03;4.83;;;1.87;;
4434;SDS011;46552;52.150;8.428;2023-03-11T13:37:41;10.00;;;2.40;;
4434;SDS011;46552;52.150;8.428;2023-03-11T13:40:19;9.40;;;2.10;;
4434;SDS011;46552;52.150;8.428;2023-03-11T13:42:55;14.63;;;2.27;;
4434;SDS011;46552;52.150;8.428;2023-03-11T13:45:28;3.53;;;1.93;;
4434;SDS011;46552;52.150;8.428;2023-03-11T13:47:59;7.40;;;2.47;;
4434;SDS011;46552;52.150;8.428;2023-03-11T13:50:33;4.93;;;2.03;;
4434;SDS011;46552;52.150;8.428;2023-03-11T13:53:05;7.33;;;1.60;;
4434;SDS011;46552;52.150;8.428;2023-03-11T13:55:40;7.30;;;2.70;;
4434;SDS011;46552;52.150;8.428;2023-03-11T13:58:14;13.23;;;3.20;;
4434;SDS011;46552;52.150;8.428;2023-03-11T14:00:51;9.67;;;3.10;;
4434;SDS011;46552;52.150;8.428;2023-03-11T14:03:20;4.33;;;2.23;;
4434;SDS011;46552;52.150;8.428;2023-03-11T14:05:55;15.30;;;3.17;;
4434;SDS011;46552;52.150;8.428;2023-03-11T14:08:25;9.10;;;2.10;;
4434;SDS011;46552;52.150;8.428;2023-03-11T14:10:56;6.80;;;1.60;;
4434;SDS011;46552;52.150;8.428;2023-03-11T14:13:25;5.60;;;2.23;;
4434;SDS011;46552;52.150;8.428;2023-03-11T14:15:58;4.70;;;2.00;;
4434;SDS011;46552;52.150;8.428;2023-03-11T14:18:32;11.33;;;2.20;;
4434;SDS011;46552;52.150;8.428;2023-03-11T14:21:05;4.63;;;1.97;;
4434;SDS011;46552;52.150;8.428;2023-03-11T14:23:54;4.80;;;2.30;;
4434;SDS011;46552;52.150;8.428;2023-03-11T14:26:22;7.20;;;2.50;;
4434;SDS011;46552;52.150;8.428;2023-03-11T14:28:53;7.77;;;2.80;;
4434;SDS011;46552;52.150;8.428;2023-03-11T14:31:25;8.63;;;2.43;;
4434;SDS011;46552;52.150;8.428;2023-03-11T14:33:57;5.50;;;2.20;;
4434;SDS011;46552;52.150;8.428;2023-03-11T14:36:29;8.00;;;2.60;;
4434;SDS011;46552;52.150;8.428;2023-03-11T14:39:04;7.63;;;2.70;;
4434;SDS011;46552;52.150;8.428;2023-03-11T14:41:32;8.67;;;3.07;;
4434;SDS011;46552;52.150;8.428;2023-03-11T14:44:01;7.70;;;2.60;;
4434;SDS011;46552;52.150;8.428;2023-03-11T14:46:28;9.50;;;3.00;;
4434;SDS011;46552;52.150;8.428;2023-03-11T14:48:56;4.13;;;2.20;;
4434;SDS011;46552;52.150;8.428;2023-03-11T14:51:28;7.60;;;3.00;;
4434;SDS011;46552;52.150;8.428;2023-03-11T14:54:03;5.10;;;2.67;;
4434;SDS011;46552;52.150;8.428;2023-03-11T14:56:34;7.17;;;2.60;;
4434;SDS011;46552;52.150;8.428;2023-03-11T14:59:06;13.33;;;2.43;;
4434;SDS011;46552;52.150;8.428;2023-03-11T15:01:40;10.80;;;2.53;;
4434;SDS011;46552;52.150;8.428;2023-03-11T15:04:10;8.93;;;2.20;;
4434;SDS011;46552;52.150;8.428;2023-03-11T15:06:41;5.87;;;2.00;;
4434;SDS011;46552;52.150;8.428;2023-03-11T15:09:10;12.03;;;2.67;;
4434;SDS011;46552;52.150;8.428;2023-03-11T15:11:43;8.47;;;2.33;;
4434;SDS011;46552;52.150;8.428;2023-03-11T15:14:19;8.77;;;2.83;;
4434;SDS011;46552;52.150;8.428;2023-03-11T15:16:48;7.70;;;3.27;;
4434;SDS011;46552;52.150;8.428;2023-03-11T15:19:28;10.53;;;2.60;;
4434;SDS011;46552;52.150;8.428;2023-03-11T15:22:04;9.67;;;2.40;;
4434;SDS011;46552;52.150;8.428;2023-03-11T15:24:48;7.07;;;2.43;;
4434;SDS011;46552;52.150;8.428;2023-03-11T15:27:20;12.47;;;2.97;;
4434;SDS011;46552;52.150;8.428;2023-03-11T15:29:53;10.47;;;3.33;;
4434;SDS011;46552;52.150;8.428;2023-03-11T15:32:24;8.80;;;2.30;;
4434;SDS011;46552;52.150;8.428;2023-03-11T15:35:11;3.97;;;2.00;;
4434;SDS011;46552;52.150;8.428;2023-03-11T15:37:42;7.73;;;2.50;;
4434;SDS011;46552;52.150;8.428;2023-03-11T15:40:16;14.93;;;3.90;;
4434;SDS011;46552;52.150;8.428;2023-03-11T15:42:46;6.30;;;2.47;;